sensor_id;sensor_type;location;lat;lon;timestamp;P1;durP1;ratioP1;P2;durP2;ratioP2
14316;SDS011;7242;50.858;6.586;2022-11-18T00:02:56;3.73;;;1.60;;
14316;SDS011;7242;50.858;6.586;2022-11-18T00:05:57;5.97;;;2.40;;
14316;SDS011;7242;50.858;6.586;2022-11-18T00:08:58;3.50;;;2.03;;
14316;SDS011;7242;50.858;6.586;2022-11-18T00:12:00;3.23;;;2.00;;
14316;SDS011;7242;50.858;6.586;2022-11-18T00:15:20;5.27;;;2.33;;
14316;SDS011;7242;50.858;6.586;2022-11-18T00:18:21;3.00;;;1.60;;
14316;SDS011;7242;50.858;6.586;2022-11-18T00:21:22;4.27;;;2.07;;
14316;SDS011;7242;50.858;6.586;2022-11-18T00:24:23;3.37;;;1.87;;
14316;SDS011;7242;50.858;6.586;2022-11-18T00:27:27;5.83;;;1.83;;
14316;SDS011;7242;50.858;6.586;2022-11-18T00:30:29;3.83;;;1.80;;
14316;SDS011;7242;50.858;6.586;2022-11-18T00:33:30;3.97;;;1.97;;
14316;SDS011;7242;50.858;6.586;2022-11-18T00:36:32;4.23;;;2.17;;
14316;SDS011;7242;50.858;6.586;2022-11-18T00:39:33;4.60;;;2.10;;
14316;SDS011;7242;50.858;6.586;2022-11-18T00:42:34;3.80;;;2.20;;
14316;SDS011;7242;50.858;6.586;2022-11-18T00:45:51;5.93;;;2.20;;
14316;SDS011;7242;50.858;6.586;2022-11-18T00:48:52;5.37;;;2.00;;
14316;SDS011;7242;50.858;6.586;2022-11-18T00:51:53;5.77;;;1.80;;
14316;SDS011;7242;50.858;6.586;2022-11-18T00:54:54;3.40;;;1.73;;
14316;SDS011;7242;50.858;6.586;2022-11-18T00:57:55;5.07;;;1.90;;
14316;SDS011;7242;50.858;6.586;2022-11-18T01:00:56;7.17;;;2.27;;
14316;SDS011;7242;50.858;6.586;2022-11-18T01:03:58;5.10;;;2.13;;
14316;SDS011;7242;50.858;6.586;2022-11-18T01:06:59;4.83;;;1.93;;
14316;SDS011;7242;50.858;6.586;2022-11-18T01:10:00;3.60;;;1.90;;
14316;SDS011;7242;50.858;6.586;2022-11-18T01:13:01;4.80;;;2.00;;
14316;SDS011;7242;50.858;6.586;2022-11-18T01:16:23;3.60;;;2.30;;
14316;SDS011;7242;50.858;6.586;2022-11-18T01:19:25;5.30;;;2.43;;
14316;SDS011;7242;50.858;6.586;2022-11-18T01:22:26;4.47;;;1.90;;
14316;SDS011;7242;50.858;6.586;2022-11-18T01:25:28;4.90;;;1.87;;
14316;SDS011;7242;50.858;6.586;2022-11-18T01:28:29;5.63;;;2.20;;
14316;SDS011;7242;50.858;6.586;2022-11-18T01:31:30;4.30;;;2.07;;
14316;SDS011;7242;50.858;6.586;2022-11-18T01:34:31;5.13;;;1.97;;
14316;SDS011;7242;50.858;6.586;2022-11-18T01:37:33;3.80;;;2.10;;
14316;SDS011;7242;50.858;6.586;2022-11-18T01:40:34;4.27;;;2.40;;
14316;SDS011;7242;50.858;6.586;2022-11-18T01:43:46;5.13;;;2.00;;
14316;SDS011;7242;50.858;6.586;2022-11-18T01:46:48;6.87;;;2.20;;
14316;SDS011;7242;50.858;6.586;2022-11-18T01:49:49;4.73;;;2.40;;
14316;SDS011;7242;50.858;6.586;2022-11-18T01:52:51;5.00;;;2.50;;
14316;SDS011;7242;50.858;6.586;2022-11-18T01:55:54;4.13;;;2.00;;
14316;SDS011;7242;50.858;6.586;2022-11-18T01:58:56;3.70;;;2.20;;
14316;SDS011;7242;50.858;6.586;2022-11-18T02:02:02;5.17;;;2.37;;
14316;SDS011;7242;50.858;6.586;2022-11-18T02:05:08;3.60;;;2.03;;
14316;SDS011;7242;50.858;6.586;2022-11-18T02:08:10;7.93;;;2.47;;
14316;SDS011;7242;50.858;6.586;2022-11-18T02:11:13;5.57;;;2.53;;
14316;SDS011;7242;50.858;6.586;2022-11-18T02:14:33;3.50;;;2.10;;
14316;SDS011;7242;50.858;6.586;2022-11-18T02:17:41;4.27;;;2.20;;
14316;SDS011;7242;50.858;6.586;2022-11-18T02:20:45;5.67;;;2.27;;
14316;SDS011;7242;50.858;6.586;2022-11-18T02:27:35;5.27;;;2.20;;
14316;SDS011;7242;50.858;6.586;2022-11-18T02:30:58;5.20;;;2.30;;
14316;SDS011;7242;50.858;6.586;2022-11-18T02:34:10;3.50;;;1.70;;
14316;SDS011;7242;50.858;6.586;2022-11-18T02:37:21;4.00;;;2.07;;
14316;SDS011;7242;50.858;6.586;2022-11-18T02:43:28;4.13;;;1.90;;
14316;SDS011;7242;50.858;6.586;2022-11-18T02:46:33;4.63;;;2.00;;
14316;SDS011;7242;50.858;6.586;2022-11-18T02:49:37;4.73;;;2.17;;
14316;SDS011;7242;50.858;6.586;2022-11-18T02:52:40;4.23;;;1.93;;
14316;SDS011;7242;50.858;6.586;2022-11-18T02:55:42;3.53;;;2.07;;
14316;SDS011;7242;50.858;6.586;2022-11-18T02:58:44;5.87;;;2.27;;
14316;SDS011;7242;50.858;6.586;2022-11-18T03:01:45;6.57;;;1.90;;
14316;SDS011;7242;50.858;6.586;2022-11-18T03:21:23;5.30;;;2.13;;
14316;SDS011;7242;50.858;6.586;2022-11-18T03:24:34;4.07;;;1.83;;
14316;SDS011;7242;50.858;6.586;2022-11-18T03:31:25;5.90;;;2.20;;
14316;SDS011;7242;50.858;6.586;2022-11-18T03:37:32;6.53;;;2.23;;
14316;SDS011;7242;50.858;6.586;2022-11-18T03:40:33;4.83;;;2.33;;
14316;SDS011;7242;50.858;6.586;2022-11-18T03:43:39;4.13;;;2.00;;
14316;SDS011;7242;50.858;6.586;2022-11-18T03:46:46;4.83;;;1.57;;
14316;SDS011;7242;50.858;6.586;2022-11-18T03:49:52;3.67;;;1.70;;
14316;SDS011;7242;50.858;6.586;2022-11-18T03:52:57;5.03;;;2.00;;
14316;SDS011;7242;50.858;6.586;2022-11-18T03:56:01;3.23;;;2.20;;
14316;SDS011;7242;50.858;6.586;2022-11-18T03:59:12;3.07;;;2.03;;
14316;SDS011;7242;50.858;6.586;2022-11-18T04:02:22;5.47;;;2.10;;
14316;SDS011;7242;50.858;6.586;2022-11-18T04:05:23;4.60;;;1.90;;
14316;SDS011;7242;50.858;6.586;2022-11-18T04:08:26;4.00;;;2.13;;
14316;SDS011;7242;50.858;6.586;2022-11-18T04:11:34;6.47;;;2.53;;
14316;SDS011;7242;50.858;6.586;2022-11-18T04:14:55;5.43;;;2.30;;
14316;SDS011;7242;50.858;6.586;2022-11-18T04:17:56;4.70;;;2.33;;
14316;SDS011;7242;50.858;6.586;2022-11-18T04:20:57;6.43;;;2.50;;
14316;SDS011;7242;50.858;6.586;2022-11-18T04:23:59;5.53;;;2.13;;
14316;SDS011;7242;50.858;6.586;2022-11-18T04:27:01;4.00;;;2.23;;
14316;SDS011;7242;50.858;6.586;2022-11-18T04:30:03;4.33;;;2.07;;
14316;SDS011;7242;50.858;6.586;2022-11-18T04:33:05;5.17;;;2.27;;
14316;SDS011;7242;50.858;6.586;2022-11-18T04:36:06;3.90;;;2.23;;
14316;SDS011;7242;50.858;6.586;2022-11-18T04:39:07;4.17;;;2.23;;
14316;SDS011;7242;50.858;6.586;2022-11-18T04:42:08;5.33;;;2.23;;
14316;SDS011;7242;50.858;6.586;2022-11-18T04:45:09;4.20;;;2.33;;
14316;SDS011;7242;50.858;6.586;2022-11-18T04:48:11;4.78;;;2.63;;
14316;SDS011;7242;50.858;6.586;2022-11-18T04:51:12;4.13;;;2.20;;
14316;SDS011;7242;50.858;6.586;2022-11-18T04:54:13;5.67;;;2.03;;
14316;SDS011;7242;50.858;6.586;2022-11-18T04:57:14;4.87;;;2.27;;
14316;SDS011;7242;50.858;6.586;2022-11-18T05:00:16;4.53;;;1.90;;
14316;SDS011;7242;50.858;6.586;2022-11-18T05:03:17;4.30;;;1.80;;
14316;SDS011;7242;50.858;6.586;2022-11-18T05:06:18;3.00;;;1.63;;
14316;SDS011;7242;50.858;6.586;2022-11-18T05:09:19;3.23;;;1.77;;
14316;SDS011;7242;50.858;6.586;2022-11-18T05:12:21;2.73;;;2.17;;
14316;SDS011;7242;50.858;6.586;2022-11-18T05:15:40;3.73;;;1.70;;
14316;SDS011;7242;50.858;6.586;2022-11-18T05:18:41;5.00;;;2.00;;
14316;SDS011;7242;50.858;6.586;2022-11-18T05:21:43;3.27;;;1.87;;
14316;SDS011;7242;50.858;6.586;2022-11-18T05:24:44;3.53;;;1.90;;
14316;SDS011;7242;50.858;6.586;2022-11-18T05:27:46;3.40;;;2.00;;
14316;SDS011;7242;50.858;6.586;2022-11-18T05:30:47;3.60;;;1.70;;
14316;SDS011;7242;50.858;6.586;2022-11-18T05:33:48;3.70;;;1.90;;
14316;SDS011;7242;50.858;6.586;2022-11-18T05:36:49;3.63;;;2.10;;
14316;SDS011;7242;50.858;6.586;2022-11-18T05:39:50;3.37;;;1.57;;
14316;SDS011;7242;50.858;6.586;2022-11-18T05:42:52;2.57;;;1.70;;
14316;SDS011;7242;50.858;6.586;2022-11-18T05:46:11;2.27;;;1.80;;
14316;SDS011;7242;50.858;6.586;2022-11-18T05:49:13;2.90;;;2.03;;
14316;SDS011;7242;50.858;6.586;2022-11-18T05:52:14;3.30;;;1.90;;
14316;SDS011;7242;50.858;6.586;2022-11-18T05:55:15;3.60;;;1.90;;
14316;SDS011;7242;50.858;6.586;2022-11-18T05:58:17;3.67;;;1.70;;
14316;SDS011;7242;50.858;6.586;2022-11-18T06:01:22;3.80;;;1.60;;
14316;SDS011;7242;50.858;6.586;2022-11-18T06:07:47;2.90;;;1.77;;
14316;SDS011;7242;50.858;6.586;2022-11-18T06:10:47;1.73;;;1.40;;
14316;SDS011;7242;50.858;6.586;2022-11-18T06:13:51;3.23;;;1.60;;
14316;SDS011;7242;50.858;6.586;2022-11-18T06:16:59;3.13;;;1.47;;
14316;SDS011;7242;50.858;6.586;2022-11-18T06:23:49;1.80;;;1.40;;
14316;SDS011;7242;50.858;6.586;2022-11-18T06:26:50;3.30;;;1.63;;
14316;SDS011;7242;50.858;6.586;2022-11-18T06:29:54;5.00;;;1.73;;
14316;SDS011;7242;50.858;6.586;2022-11-18T06:32:55;4.13;;;1.77;;
14316;SDS011;7242;50.858;6.586;2022-11-18T06:35:57;2.63;;;1.80;;
14316;SDS011;7242;50.858;6.586;2022-11-18T06:39:02;2.67;;;1.67;;
14316;SDS011;7242;50.858;6.586;2022-11-18T06:42:06;3.03;;;1.90;;
14316;SDS011;7242;50.858;6.586;2022-11-18T06:45:08;2.87;;;1.80;;
14316;SDS011;7242;50.858;6.586;2022-11-18T06:48:09;2.07;;;1.83;;
14316;SDS011;7242;50.858;6.586;2022-11-18T06:51:10;4.60;;;1.80;;
14316;SDS011;7242;50.858;6.586;2022-11-18T06:54:12;3.07;;;1.77;;
14316;SDS011;7242;50.858;6.586;2022-11-18T06:57:13;3.27;;;1.70;;
14316;SDS011;7242;50.858;6.586;2022-11-18T07:00:15;3.00;;;1.70;;
14316;SDS011;7242;50.858;6.586;2022-11-18T07:03:16;6.07;;;1.70;;
14316;SDS011;7242;50.858;6.586;2022-11-18T07:06:18;3.30;;;2.00;;
14316;SDS011;7242;50.858;6.586;2022-11-18T07:09:20;3.33;;;1.70;;
14316;SDS011;7242;50.858;6.586;2022-11-18T07:12:24;2.97;;;1.77;;
14316;SDS011;7242;50.858;6.586;2022-11-18T07:15:25;2.57;;;1.50;;
14316;SDS011;7242;50.858;6.586;2022-11-18T07:18:28;3.43;;;1.90;;
14316;SDS011;7242;50.858;6.586;2022-11-18T07:21:30;4.77;;;1.80;;
14316;SDS011;7242;50.858;6.586;2022-11-18T07:24:31;2.00;;;1.57;;
14316;SDS011;7242;50.858;6.586;2022-11-18T07:27:33;3.57;;;1.80;;
14316;SDS011;7242;50.858;6.586;2022-11-18T07:30:34;6.10;;;2.23;;
14316;SDS011;7242;50.858;6.586;2022-11-18T07:33:35;3.93;;;1.80;;
14316;SDS011;7242;50.858;6.586;2022-11-18T07:36:37;3.13;;;1.80;;
14316;SDS011;7242;50.858;6.586;2022-11-18T07:39:38;3.63;;;1.77;;
14316;SDS011;7242;50.858;6.586;2022-11-18T07:42:39;3.50;;;1.70;;
14316;SDS011;7242;50.858;6.586;2022-11-18T07:45:56;4.87;;;1.97;;
14316;SDS011;7242;50.858;6.586;2022-11-18T07:48:58;6.03;;;2.00;;
14316;SDS011;7242;50.858;6.586;2022-11-18T07:52:00;3.87;;;1.80;;
14316;SDS011;7242;50.858;6.586;2022-11-18T07:55:01;3.30;;;2.00;;
14316;SDS011;7242;50.858;6.586;2022-11-18T07:58:02;3.80;;;1.80;;
14316;SDS011;7242;50.858;6.586;2022-11-18T08:04:09;3.07;;;1.77;;
14316;SDS011;7242;50.858;6.586;2022-11-18T08:07:11;4.30;;;1.80;;
14316;SDS011;7242;50.858;6.586;2022-11-18T08:10:13;4.40;;;1.67;;
14316;SDS011;7242;50.858;6.586;2022-11-18T08:13:14;4.10;;;1.63;;
14316;SDS011;7242;50.858;6.586;2022-11-18T08:16:16;5.80;;;1.87;;
14316;SDS011;7242;50.858;6.586;2022-11-18T08:19:17;3.93;;;1.70;;
14316;SDS011;7242;50.858;6.586;2022-11-18T08:22:19;1.60;;;1.37;;
14316;SDS011;7242;50.858;6.586;2022-11-18T08:25:20;3.83;;;1.50;;
14316;SDS011;7242;50.858;6.586;2022-11-18T08:28:21;3.67;;;1.47;;
14316;SDS011;7242;50.858;6.586;2022-11-18T08:31:23;4.53;;;1.57;;
14316;SDS011;7242;50.858;6.586;2022-11-18T08:34:25;6.47;;;1.80;;
14316;SDS011;7242;50.858;6.586;2022-11-18T08:37:26;4.70;;;1.70;;
14316;SDS011;7242;50.858;6.586;2022-11-18T08:40:27;3.00;;;1.30;;
14316;SDS011;7242;50.858;6.586;2022-11-18T08:43:28;4.47;;;1.37;;
14316;SDS011;7242;50.858;6.586;2022-11-18T08:46:29;3.90;;;1.60;;
14316;SDS011;7242;50.858;6.586;2022-11-18T08:49:31;5.23;;;1.83;;
14316;SDS011;7242;50.858;6.586;2022-11-18T08:52:32;4.07;;;1.60;;
14316;SDS011;7242;50.858;6.586;2022-11-18T08:55:33;4.93;;;1.60;;
14316;SDS011;7242;50.858;6.586;2022-11-18T08:58:34;2.53;;;1.30;;
14316;SDS011;7242;50.858;6.586;2022-11-18T09:01:36;2.73;;;1.63;;
14316;SDS011;7242;50.858;6.586;2022-11-18T09:04:37;6.30;;;1.93;;
14316;SDS011;7242;50.858;6.586;2022-11-18T09:07:39;5.10;;;1.57;;
14316;SDS011;7242;50.858;6.586;2022-11-18T09:10:40;5.13;;;1.63;;
14316;SDS011;7242;50.858;6.586;2022-11-18T09:13:41;2.53;;;1.50;;
14316;SDS011;7242;50.858;6.586;2022-11-18T09:16:42;3.20;;;1.30;;
14316;SDS011;7242;50.858;6.586;2022-11-18T09:19:44;2.23;;;1.30;;
14316;SDS011;7242;50.858;6.586;2022-11-18T09:22:45;5.47;;;1.40;;
14316;SDS011;7242;50.858;6.586;2022-11-18T09:25:46;3.30;;;1.30;;
14316;SDS011;7242;50.858;6.586;2022-11-18T09:28:48;6.83;;;1.40;;
14316;SDS011;7242;50.858;6.586;2022-11-18T09:31:49;5.17;;;1.57;;
14316;SDS011;7242;50.858;6.586;2022-11-18T09:34:50;4.47;;;1.60;;
14316;SDS011;7242;50.858;6.586;2022-11-18T09:37:51;4.97;;;1.60;;
14316;SDS011;7242;50.858;6.586;2022-11-18T09:47:27;4.00;;;1.50;;
14316;SDS011;7242;50.858;6.586;2022-11-18T09:50:28;6.33;;;1.40;;
14316;SDS011;7242;50.858;6.586;2022-11-18T09:53:29;4.70;;;1.30;;
14316;SDS011;7242;50.858;6.586;2022-11-18T09:56:31;4.30;;;1.20;;
14316;SDS011;7242;50.858;6.586;2022-11-18T09:59:32;5.53;;;1.30;;
14316;SDS011;7242;50.858;6.586;2022-11-18T10:02:40;4.70;;;1.50;;
14316;SDS011;7242;50.858;6.586;2022-11-18T10:16:02;4.43;;;1.20;;
14316;SDS011;7242;50.858;6.586;2022-11-18T10:25:18;5.10;;;1.20;;
14316;SDS011;7242;50.858;6.586;2022-11-18T10:28:20;3.07;;;1.20;;
14316;SDS011;7242;50.858;6.586;2022-11-18T10:31:28;3.43;;;1.43;;
14316;SDS011;7242;50.858;6.586;2022-11-18T10:34:30;6.87;;;1.37;;
14316;SDS011;7242;50.858;6.586;2022-11-18T10:37:32;9.03;;;1.63;;
14316;SDS011;7242;50.858;6.586;2022-11-18T10:40:34;4.27;;;1.20;;
14316;SDS011;7242;50.858;6.586;2022-11-18T10:43:51;5.00;;;1.37;;
14316;SDS011;7242;50.858;6.586;2022-11-18T10:46:53;4.60;;;1.30;;
14316;SDS011;7242;50.858;6.586;2022-11-18T10:49:55;2.83;;;1.10;;
14316;SDS011;7242;50.858;6.586;2022-11-18T10:52:58;5.57;;;1.40;;
14316;SDS011;7242;50.858;6.586;2022-11-18T10:56:07;4.20;;;1.60;;
14316;SDS011;7242;50.858;6.586;2022-11-18T10:59:10;4.70;;;1.40;;
14316;SDS011;7242;50.858;6.586;2022-11-18T11:02:33;4.17;;;1.37;;
14316;SDS011;7242;50.858;6.586;2022-11-18T11:05:39;6.03;;;1.17;;
14316;SDS011;7242;50.858;6.586;2022-11-18T11:08:50;5.23;;;1.80;;
14316;SDS011;7242;50.858;6.586;2022-11-18T11:14:55;3.33;;;1.23;;
14316;SDS011;7242;50.858;6.586;2022-11-18T11:18:23;4.10;;;1.23;;
14316;SDS011;7242;50.858;6.586;2022-11-18T11:21:42;6.47;;;1.30;;
14316;SDS011;7242;50.858;6.586;2022-11-18T11:24:43;7.50;;;1.27;;
14316;SDS011;7242;50.858;6.586;2022-11-18T11:27:47;5.43;;;1.50;;
14316;SDS011;7242;50.858;6.586;2022-11-18T11:34:04;6.47;;;1.40;;
14316;SDS011;7242;50.858;6.586;2022-11-18T11:37:21;5.57;;;1.47;;
14316;SDS011;7242;50.858;6.586;2022-11-18T11:40:37;5.10;;;1.30;;
14316;SDS011;7242;50.858;6.586;2022-11-18T11:47:09;6.40;;;1.30;;
14316;SDS011;7242;50.858;6.586;2022-11-18T11:50:42;4.97;;;1.40;;
14316;SDS011;7242;50.858;6.586;2022-11-18T12:00:13;3.17;;;1.07;;
14316;SDS011;7242;50.858;6.586;2022-11-18T12:06:51;3.27;;;1.13;;
14316;SDS011;7242;50.858;6.586;2022-11-18T12:09:59;3.83;;;1.40;;
14316;SDS011;7242;50.858;6.586;2022-11-18T12:13:45;5.13;;;1.20;;
14316;SDS011;7242;50.858;6.586;2022-11-18T12:19:27;4.20;;;1.40;;
14316;SDS011;7242;50.858;6.586;2022-11-18T12:26:09;3.70;;;1.20;;
14316;SDS011;7242;50.858;6.586;2022-11-18T12:32:24;5.07;;;1.30;;
14316;SDS011;7242;50.858;6.586;2022-11-18T12:35:26;5.43;;;1.40;;
14316;SDS011;7242;50.858;6.586;2022-11-18T12:38:29;4.63;;;1.37;;
14316;SDS011;7242;50.858;6.586;2022-11-18T12:45:36;4.30;;;1.40;;
14316;SDS011;7242;50.858;6.586;2022-11-18T12:48:55;4.87;;;1.70;;
14316;SDS011;7242;50.858;6.586;2022-11-18T12:51:50;5.50;;;1.80;;
14316;SDS011;7242;50.858;6.586;2022-11-18T12:54:51;7.50;;;1.97;;
14316;SDS011;7242;50.858;6.586;2022-11-18T12:57:52;8.60;;;2.50;;
14316;SDS011;7242;50.858;6.586;2022-11-18T13:01:07;5.17;;;1.73;;
14316;SDS011;7242;50.858;6.586;2022-11-18T13:04:12;8.00;;;2.00;;
14316;SDS011;7242;50.858;6.586;2022-11-18T13:07:13;6.03;;;1.60;;
14316;SDS011;7242;50.858;6.586;2022-11-18T13:10:37;5.20;;;1.47;;
14316;SDS011;7242;50.858;6.586;2022-11-18T13:13:39;4.53;;;1.63;;
14316;SDS011;7242;50.858;6.586;2022-11-18T13:16:42;3.23;;;1.37;;
14316;SDS011;7242;50.858;6.586;2022-11-18T13:20:02;6.87;;;1.80;;
14316;SDS011;7242;50.858;6.586;2022-11-18T13:26:32;3.37;;;1.23;;
14316;SDS011;7242;50.858;6.586;2022-11-18T13:32:46;6.00;;;1.40;;
14316;SDS011;7242;50.858;6.586;2022-11-18T13:35:48;3.67;;;1.47;;
14316;SDS011;7242;50.858;6.586;2022-11-18T13:38:58;5.90;;;1.50;;
14316;SDS011;7242;50.858;6.586;2022-11-18T13:42:01;5.97;;;1.57;;
14316;SDS011;7242;50.858;6.586;2022-11-18T13:45:02;3.10;;;1.77;;
14316;SDS011;7242;50.858;6.586;2022-11-18T13:48:06;3.33;;;1.70;;
14316;SDS011;7242;50.858;6.586;2022-11-18T13:51:12;5.80;;;1.77;;
14316;SDS011;7242;50.858;6.586;2022-11-18T13:54:16;5.10;;;1.53;;
14316;SDS011;7242;50.858;6.586;2022-11-18T13:57:20;4.20;;;1.60;;
14316;SDS011;7242;50.858;6.586;2022-11-18T14:00:25;4.67;;;1.50;;
14316;SDS011;7242;50.858;6.586;2022-11-18T14:03:28;5.50;;;1.67;;
14316;SDS011;7242;50.858;6.586;2022-11-18T14:06:32;5.23;;;1.37;;
14316;SDS011;7242;50.858;6.586;2022-11-18T14:09:33;4.67;;;1.47;;
14316;SDS011;7242;50.858;6.586;2022-11-18T14:12:34;3.83;;;1.30;;
14316;SDS011;7242;50.858;6.586;2022-11-18T14:15:36;5.73;;;1.63;;
14316;SDS011;7242;50.858;6.586;2022-11-18T14:18:37;6.27;;;1.80;;
14316;SDS011;7242;50.858;6.586;2022-11-18T14:21:44;2.37;;;1.30;;
14316;SDS011;7242;50.858;6.586;2022-11-18T14:24:55;3.10;;;1.40;;
14316;SDS011;7242;50.858;6.586;2022-11-18T14:28:08;5.77;;;1.40;;
14316;SDS011;7242;50.858;6.586;2022-11-18T14:34:26;4.77;;;1.40;;
14316;SDS011;7242;50.858;6.586;2022-11-18T14:37:29;5.57;;;2.20;;
14316;SDS011;7242;50.858;6.586;2022-11-18T14:40:30;7.30;;;1.90;;
14316;SDS011;7242;50.858;6.586;2022-11-18T14:43:31;6.63;;;2.03;;
14316;SDS011;7242;50.858;6.586;2022-11-18T14:46:32;5.03;;;1.33;;
14316;SDS011;7242;50.858;6.586;2022-11-18T14:49:35;5.60;;;1.50;;
14316;SDS011;7242;50.858;6.586;2022-11-18T14:52:36;4.77;;;1.40;;
14316;SDS011;7242;50.858;6.586;2022-11-18T14:55:38;4.23;;;1.60;;
14316;SDS011;7242;50.858;6.586;2022-11-18T14:58:39;6.73;;;2.13;;
14316;SDS011;7242;50.858;6.586;2022-11-18T15:01:41;5.03;;;2.20;;
14316;SDS011;7242;50.858;6.586;2022-11-18T15:04:43;4.13;;;1.70;;
14316;SDS011;7242;50.858;6.586;2022-11-18T15:07:44;2.37;;;1.60;;
14316;SDS011;7242;50.858;6.586;2022-11-18T15:10:46;4.07;;;1.70;;
14316;SDS011;7242;50.858;6.586;2022-11-18T15:13:47;5.67;;;2.20;;
14316;SDS011;7242;50.858;6.586;2022-11-18T15:16:48;5.87;;;1.77;;
14316;SDS011;7242;50.858;6.586;2022-11-18T15:19:50;4.63;;;2.17;;
14316;SDS011;7242;50.858;6.586;2022-11-18T15:22:51;2.03;;;1.57;;
14316;SDS011;7242;50.858;6.586;2022-11-18T15:25:52;2.77;;;1.37;;
14316;SDS011;7242;50.858;6.586;2022-11-18T15:28:54;3.50;;;1.33;;
14316;SDS011;7242;50.858;6.586;2022-11-18T15:31:56;2.87;;;1.90;;
14316;SDS011;7242;50.858;6.586;2022-11-18T15:34:57;2.90;;;1.90;;
14316;SDS011;7242;50.858;6.586;2022-11-18T15:37:59;5.83;;;2.20;;
14316;SDS011;7242;50.858;6.586;2022-11-18T15:41:00;5.07;;;2.20;;
14316;SDS011;7242;50.858;6.586;2022-11-18T15:44:01;4.63;;;2.17;;
14316;SDS011;7242;50.858;6.586;2022-11-18T15:47:02;4.40;;;2.57;;
14316;SDS011;7242;50.858;6.586;2022-11-18T15:50:04;4.57;;;2.33;;
14316;SDS011;7242;50.858;6.586;2022-11-18T15:53:05;4.63;;;1.83;;
14316;SDS011;7242;50.858;6.586;2022-11-18T15:59:23;4.30;;;1.80;;
14316;SDS011;7242;50.858;6.586;2022-11-18T16:02:24;3.13;;;1.47;;
14316;SDS011;7242;50.858;6.586;2022-11-18T16:05:25;4.43;;;1.70;;
14316;SDS011;7242;50.858;6.586;2022-11-18T16:08:27;2.77;;;1.53;;
14316;SDS011;7242;50.858;6.586;2022-11-18T16:11:29;3.03;;;1.63;;
14316;SDS011;7242;50.858;6.586;2022-11-18T16:14:49;3.03;;;1.63;;
14316;SDS011;7242;50.858;6.586;2022-11-18T16:18:10;4.80;;;1.80;;
14316;SDS011;7242;50.858;6.586;2022-11-18T16:21:12;3.20;;;1.60;;
14316;SDS011;7242;50.858;6.586;2022-11-18T16:24:15;4.83;;;1.70;;
14316;SDS011;7242;50.858;6.586;2022-11-18T16:27:17;2.00;;;1.50;;
14316;SDS011;7242;50.858;6.586;2022-11-18T16:30:20;3.80;;;1.80;;
14316;SDS011;7242;50.858;6.586;2022-11-18T16:33:40;3.23;;;1.80;;
14316;SDS011;7242;50.858;6.586;2022-11-18T16:36:42;2.27;;;1.60;;
14316;SDS011;7242;50.858;6.586;2022-11-18T16:39:44;3.40;;;1.87;;
14316;SDS011;7242;50.858;6.586;2022-11-18T16:42:49;3.30;;;1.70;;
14316;SDS011;7242;50.858;6.586;2022-11-18T16:45:51;3.70;;;1.70;;
14316;SDS011;7242;50.858;6.586;2022-11-18T16:48:52;3.17;;;2.17;;
14316;SDS011;7242;50.858;6.586;2022-11-18T16:51:55;3.70;;;2.40;;
14316;SDS011;7242;50.858;6.586;2022-11-18T16:54:57;3.77;;;2.40;;
14316;SDS011;7242;50.858;6.586;2022-11-18T16:57:58;2.87;;;2.40;;
14316;SDS011;7242;50.858;6.586;2022-11-18T17:01:05;3.70;;;2.60;;
14316;SDS011;7242;50.858;6.586;2022-11-18T17:04:08;4.17;;;3.20;;
14316;SDS011;7242;50.858;6.586;2022-11-18T17:07:11;5.13;;;3.40;;
14316;SDS011;7242;50.858;6.586;2022-11-18T17:10:12;3.23;;;2.60;;
14316;SDS011;7242;50.858;6.586;2022-11-18T17:13:20;4.97;;;2.40;;
14316;SDS011;7242;50.858;6.586;2022-11-18T17:16:21;3.60;;;2.40;;
14316;SDS011;7242;50.858;6.586;2022-11-18T17:19:23;4.23;;;2.10;;
14316;SDS011;7242;50.858;6.586;2022-11-18T17:22:24;3.73;;;2.37;;
14316;SDS011;7242;50.858;6.586;2022-11-18T17:25:25;3.17;;;2.00;;
14316;SDS011;7242;50.858;6.586;2022-11-18T17:28:27;2.57;;;1.80;;
14316;SDS011;7242;50.858;6.586;2022-11-18T17:31:29;4.80;;;1.77;;
14316;SDS011;7242;50.858;6.586;2022-11-18T17:34:30;3.33;;;1.80;;
14316;SDS011;7242;50.858;6.586;2022-11-18T17:37:31;3.40;;;2.90;;
14316;SDS011;7242;50.858;6.586;2022-11-18T17:40:33;8.27;;;5.60;;
14316;SDS011;7242;50.858;6.586;2022-11-18T17:43:34;6.03;;;4.73;;
14316;SDS011;7242;50.858;6.586;2022-11-18T17:46:36;5.43;;;3.23;;
14316;SDS011;7242;50.858;6.586;2022-11-18T17:49:37;4.40;;;2.60;;
14316;SDS011;7242;50.858;6.586;2022-11-18T17:52:38;2.90;;;2.00;;
14316;SDS011;7242;50.858;6.586;2022-11-18T17:55:40;4.10;;;3.53;;
14316;SDS011;7242;50.858;6.586;2022-11-18T17:58:40;7.67;;;4.80;;
14316;SDS011;7242;50.858;6.586;2022-11-18T18:01:42;9.80;;;7.10;;
14316;SDS011;7242;50.858;6.586;2022-11-18T18:04:44;9.50;;;6.67;;
14316;SDS011;7242;50.858;6.586;2022-11-18T18:07:45;7.93;;;5.80;;
14316;SDS011;7242;50.858;6.586;2022-11-18T18:10:47;7.73;;;6.03;;
14316;SDS011;7242;50.858;6.586;2022-11-18T18:13:48;6.67;;;4.90;;
14316;SDS011;7242;50.858;6.586;2022-11-18T18:17:08;6.23;;;3.63;;
14316;SDS011;7242;50.858;6.586;2022-11-18T18:20:10;3.30;;;3.00;;
14316;SDS011;7242;50.858;6.586;2022-11-18T18:23:11;5.03;;;3.13;;
14316;SDS011;7242;50.858;6.586;2022-11-18T18:26:12;5.43;;;3.10;;
14316;SDS011;7242;50.858;6.586;2022-11-18T18:29:14;6.53;;;3.73;;
14316;SDS011;7242;50.858;6.586;2022-11-18T18:32:15;5.30;;;3.40;;
14316;SDS011;7242;50.858;6.586;2022-11-18T18:35:16;5.73;;;3.97;;
14316;SDS011;7242;50.858;6.586;2022-11-18T18:38:17;5.63;;;5.00;;
14316;SDS011;7242;50.858;6.586;2022-11-18T18:41:19;6.43;;;5.27;;
14316;SDS011;7242;50.858;6.586;2022-11-18T18:44:21;4.80;;;3.67;;
14316;SDS011;7242;50.858;6.586;2022-11-18T18:47:42;5.83;;;4.10;;
14316;SDS011;7242;50.858;6.586;2022-11-18T18:50:43;5.53;;;4.73;;
14316;SDS011;7242;50.858;6.586;2022-11-18T18:53:45;6.77;;;4.77;;
14316;SDS011;7242;50.858;6.586;2022-11-18T18:56:46;5.53;;;3.83;;
14316;SDS011;7242;50.858;6.586;2022-11-18T18:59:47;5.57;;;3.37;;
14316;SDS011;7242;50.858;6.586;2022-11-18T19:02:48;5.37;;;3.50;;
14316;SDS011;7242;50.858;6.586;2022-11-18T19:05:50;6.43;;;3.10;;
14316;SDS011;7242;50.858;6.586;2022-11-18T19:08:51;5.87;;;3.00;;
14316;SDS011;7242;50.858;6.586;2022-11-18T19:11:53;5.07;;;3.80;;
14316;SDS011;7242;50.858;6.586;2022-11-18T19:15:12;6.63;;;4.13;;
14316;SDS011;7242;50.858;6.586;2022-11-18T19:18:14;7.60;;;3.57;;
14316;SDS011;7242;50.858;6.586;2022-11-18T19:21:15;4.73;;;3.63;;
14316;SDS011;7242;50.858;6.586;2022-11-18T19:24:17;8.70;;;4.13;;
14316;SDS011;7242;50.858;6.586;2022-11-18T19:27:18;5.70;;;3.90;;
14316;SDS011;7242;50.858;6.586;2022-11-18T19:30:19;5.60;;;3.70;;
14316;SDS011;7242;50.858;6.586;2022-11-18T19:33:20;5.53;;;3.40;;
14316;SDS011;7242;50.858;6.586;2022-11-18T19:36:21;5.20;;;3.57;;
14316;SDS011;7242;50.858;6.586;2022-11-18T19:39:22;5.47;;;3.90;;
14316;SDS011;7242;50.858;6.586;2022-11-18T19:42:24;7.63;;;4.27;;
14316;SDS011;7242;50.858;6.586;2022-11-18T19:45:26;5.90;;;4.33;;
14316;SDS011;7242;50.858;6.586;2022-11-18T19:48:28;6.00;;;3.63;;
14316;SDS011;7242;50.858;6.586;2022-11-18T19:51:29;5.87;;;3.13;;
14316;SDS011;7242;50.858;6.586;2022-11-18T19:54:31;4.83;;;3.20;;
14316;SDS011;7242;50.858;6.586;2022-11-18T19:57:33;7.47;;;2.90;;
14316;SDS011;7242;50.858;6.586;2022-11-18T20:00:34;4.63;;;2.30;;
14316;SDS011;7242;50.858;6.586;2022-11-18T20:03:35;4.47;;;2.13;;
14316;SDS011;7242;50.858;6.586;2022-11-18T20:06:37;3.40;;;1.70;;
14316;SDS011;7242;50.858;6.586;2022-11-18T20:09:39;3.70;;;1.80;;
14316;SDS011;7242;50.858;6.586;2022-11-18T20:12:40;2.77;;;1.70;;
14316;SDS011;7242;50.858;6.586;2022-11-18T20:15:42;4.27;;;2.20;;
14316;SDS011;7242;50.858;6.586;2022-11-18T20:18:44;3.40;;;2.30;;
14316;SDS011;7242;50.858;6.586;2022-11-18T20:21:47;3.93;;;2.27;;
14316;SDS011;7242;50.858;6.586;2022-11-18T20:24:49;3.83;;;2.10;;
14316;SDS011;7242;50.858;6.586;2022-11-18T20:27:50;3.43;;;2.00;;
14316;SDS011;7242;50.858;6.586;2022-11-18T20:30:52;4.93;;;2.10;;
14316;SDS011;7242;50.858;6.586;2022-11-18T20:33:54;3.67;;;2.37;;